createdAt,value
2022-12-17T00:02:01.944Z,5.63
2022-12-17T00:05:22.079Z,6.67
2022-12-17T00:08:41.971Z,5.30
2022-12-17T00:12:01.934Z,4.67
2022-12-17T00:15:22.179Z,5.00
2022-12-17T00:18:42.045Z,3.90
2022-12-17T00:22:01.951Z,5.23
2022-12-17T00:25:22.371Z,4.47
2022-12-17T00:28:42.243Z,3.90
2022-12-17T00:32:01.893Z,4.07
2022-12-17T00:35:22.316Z,4.40
2022-12-17T00:38:42.282Z,3.85
2022-12-17T00:42:02.463Z,4.18
2022-12-17T00:45:23.119Z,4.53
2022-12-17T00:48:43.275Z,4.22
2022-12-17T00:52:03.219Z,4.90
2022-12-17T00:55:23.884Z,3.67
2022-12-17T00:58:44.212Z,4.32
2022-12-17T01:02:04.366Z,5.35
2022-12-17T01:05:25.515Z,4.22
2022-12-17T07:10:30.393Z,12.30
2022-12-17T07:13:50.720Z,6.13
2022-12-17T07:17:10.945Z,7.13
2022-12-17T07:20:38.464Z,4.53
2022-12-17T07:23:58.353Z,11.85
2022-12-17T07:27:18.548Z,7.30
2022-12-17T07:30:38.491Z,4.68
2022-12-17T07:33:58.542Z,4.27
2022-12-17T07:37:20.598Z,3.47
2022-12-17T07:40:40.841Z,3.35
2022-12-17T07:44:00.905Z,4.07
2022-12-17T07:47:21.023Z,4.43
2022-12-17T07:50:41.308Z,2.33
2022-12-17T07:54:01.399Z,2.53
2022-12-17T07:57:21.448Z,2.00
2022-12-17T08:00:46.003Z,2.35
2022-12-17T14:14:16.251Z,24.20
2022-12-17T14:17:39.275Z,17.05
2022-12-17T14:20:40.883Z,15.68
2022-12-17T14:23:43.267Z,15.48
2022-12-17T14:26:51.909Z,14.52
2022-12-17T14:29:53.448Z,14.02
2022-12-17T14:32:59.147Z,11.50
2022-12-17T14:36:05.235Z,10.10
2022-12-17T14:39:31.209Z,10.05
2022-12-17T14:42:35.904Z,12.90
2022-12-17T14:45:57.429Z,9.18
2022-12-17T14:49:01.271Z,10.88
2022-12-17T14:52:13.459Z,9.15
2022-12-17T14:55:38.687Z,14.55
2022-12-17T14:58:45.817Z,10.70
2022-12-17T15:01:50.182Z,8.55
2022-12-17T15:04:58.094Z,10.25
2022-12-17T15:07:59.899Z,9.23
2022-12-17T15:11:01.672Z,8.90
2022-12-17T15:14:03.552Z,12.77
2022-12-17T15:17:05.812Z,8.15
2022-12-17T15:20:12.634Z,7.95
2022-12-17T15:23:19.162Z,9.02
2022-12-17T15:26:21.324Z,7.38
2022-12-17T15:29:24.393Z,6.53
2022-12-17T15:32:25.877Z,7.45
2022-12-17T15:35:27.405Z,6.70
2022-12-17T15:38:29.027Z,11.57
2022-12-17T15:41:48.845Z,5.45
2022-12-17T15:44:50.294Z,7.20
2022-12-17T15:47:52.074Z,6.85
2022-12-17T15:50:53.557Z,5.20
2022-12-17T15:53:55.015Z,6.32
2022-12-17T15:56:56.623Z,6.88
2022-12-17T15:59:58.168Z,6.60
2022-12-17T16:02:59.908Z,8.45
2022-12-17T16:06:01.852Z,6.65
2022-12-17T16:09:03.496Z,6.53
2022-12-17T16:12:05.171Z,6.03
2022-12-17T16:15:08.080Z,5.20
2022-12-17T16:18:09.664Z,5.13
2022-12-17T16:21:12.535Z,5.88
2022-12-17T16:24:14.053Z,5.53
2022-12-17T16:27:18.055Z,3.83
2022-12-17T16:30:19.704Z,7.18
2022-12-17T16:33:21.200Z,5.07
2022-12-17T16:36:22.855Z,5.05
2022-12-17T16:39:24.367Z,4.65
2022-12-17T16:42:25.872Z,4.68
2022-12-17T16:45:27.419Z,6.35
2022-12-17T16:48:28.974Z,4.45
2022-12-17T16:51:30.536Z,4.28
2022-12-17T16:54:33.506Z,3.60
2022-12-17T16:57:34.978Z,6.47
2022-12-17T17:00:37.233Z,4.05
2022-12-17T17:03:40.875Z,7.00
2022-12-17T17:06:53.416Z,6.28
2022-12-17T17:09:54.926Z,5.63
2022-12-17T17:12:56.980Z,4.07
2022-12-17T17:15:58.517Z,3.90
2022-12-17T17:19:01.071Z,5.32
2022-12-17T17:22:02.567Z,4.25
2022-12-17T20:29:58.759Z,8.23
2022-12-17T20:33:00.200Z,4.70
2022-12-17T20:36:11.922Z,4.85
2022-12-17T20:39:13.460Z,4.75
2022-12-17T20:42:14.978Z,5.38
2022-12-17T20:45:16.502Z,5.95
2022-12-17T20:48:18.300Z,3.47
2022-12-17T20:51:25.484Z,4.93
2022-12-17T20:54:27.010Z,3.13
2022-12-17T20:57:28.458Z,5.07
2022-12-17T21:00:29.926Z,3.72
2022-12-17T21:03:32.360Z,3.72
2022-12-17T21:06:39.820Z,3.75
2022-12-17T21:09:41.304Z,3.70
2022-12-17T21:13:01.175Z,8.95
2022-12-17T21:16:10.302Z,5.20
2022-12-17T21:19:15.356Z,4.53
2022-12-17T21:22:16.857Z,3.15
2022-12-17T21:25:18.461Z,7.15
2022-12-17T21:28:25.734Z,3.33
2022-12-17T21:31:35.615Z,2.70
2022-12-17T21:34:37.179Z,5.60
2022-12-17T21:37:38.755Z,5.75
2022-12-17T21:40:40.694Z,11.27
2022-12-17T21:43:42.656Z,5.75
2022-12-17T21:46:49.928Z,3.60
2022-12-17T21:49:51.710Z,5.95
2022-12-17T21:52:53.190Z,5.55
2022-12-17T21:56:02.950Z,5.15
2022-12-17T21:59:04.816Z,5.37
2022-12-17T22:02:06.535Z,4.88
2022-12-17T22:05:11.565Z,6.88
2022-12-17T22:08:15.684Z,4.03
2022-12-17T22:11:20.712Z,6.15
2022-12-17T22:14:26.352Z,5.70
2022-12-17T22:17:27.858Z,5.38
2022-12-17T22:20:29.364Z,2.92
2022-12-17T22:23:30.873Z,2.97
2022-12-17T22:26:33.933Z,3.67
2022-12-17T22:29:53.923Z,2.97
2022-12-17T22:33:02.709Z,3.27
2022-12-17T22:37:24.170Z,2.40
2022-12-17T22:41:20.144Z,7.75
2022-12-17T22:44:44.630Z,4.78
2022-12-17T22:46:31.813Z,4.90
2022-12-17T22:49:33.389Z,2.58
2022-12-17T22:52:35.017Z,3.97
2022-12-17T22:55:37.158Z,4.47
2022-12-17T22:58:39.151Z,2.65
2022-12-17T23:01:40.744Z,2.47
2022-12-17T23:04:42.624Z,3.28
2022-12-17T23:07:44.243Z,2.97
2022-12-17T23:10:45.753Z,2.53
2022-12-17T23:13:47.383Z,3.67
2022-12-17T23:16:48.941Z,1.90
2022-12-17T23:19:50.424Z,3.83
2022-12-17T23:22:52.132Z,2.67
2022-12-17T23:25:53.942Z,2.20
2022-12-17T23:29:01.700Z,2.75
2022-12-17T23:32:03.324Z,2.60
2022-12-17T23:35:05.398Z,1.98
2022-12-17T23:38:06.971Z,2.05
2022-12-17T23:41:19.800Z,2.97
2022-12-17T23:44:21.274Z,3.00
2022-12-17T23:47:23.954Z,2.97
2022-12-17T23:50:25.427Z,2.35
2022-12-17T23:53:27.825Z,2.53
2022-12-17T23:56:29.375Z,2.70
2022-12-17T23:59:30.859Z,3.75
